sensor_id;sensor_type;location;lat;lon;timestamp;P1;durP1;ratioP1;P2;durP2;ratioP2
9848;SDS011;4963;51.444;6.528;2023-04-24T00:00:37;2.70;;;1.50;;
9848;SDS011;4963;51.444;6.528;2023-04-24T00:03:05;2.00;;;1.80;;
9848;SDS011;4963;51.444;6.528;2023-04-24T00:05:33;3.13;;;2.10;;
9848;SDS011;4963;51.444;6.528;2023-04-24T00:07:59;3.13;;;2.27;;
9848;SDS011;4963;51.444;6.528;2023-04-24T00:10:26;3.00;;;2.10;;
9848;SDS011;4963;51.444;6.528;2023-04-24T00:12:53;2.77;;;2.40;;
9848;SDS011;4963;51.444;6.528;2023-04-24T00:15:21;3.57;;;2.33;;
9848;SDS011;4963;51.444;6.528;2023-04-24T00:17:48;2.93;;;2.20;;
9848;SDS011;4963;51.444;6.528;2023-04-24T00:20:15;4.73;;;2.53;;
9848;SDS011;4963;51.444;6.528;2023-04-24T00:22:42;3.70;;;2.77;;
9848;SDS011;4963;51.444;6.528;2023-04-24T00:25:08;5.30;;;2.60;;
9848;SDS011;4963;51.444;6.528;2023-04-24T00:27:35;5.20;;;2.77;;
9848;SDS011;4963;51.444;6.528;2023-04-24T00:30:04;2.80;;;2.30;;
9848;SDS011;4963;51.444;6.528;2023-04-24T00:32:32;2.90;;;2.17;;
9848;SDS011;4963;51.444;6.528;2023-04-24T00:34:59;3.20;;;2.50;;
9848;SDS011;4963;51.444;6.528;2023-04-24T00:37:26;3.57;;;2.63;;
9848;SDS011;4963;51.444;6.528;2023-04-24T00:39:53;5.80;;;3.03;;
9848;SDS011;4963;51.444;6.528;2023-04-24T00:42:20;3.17;;;2.67;;
9848;SDS011;4963;51.444;6.528;2023-04-24T00:44:47;4.30;;;2.73;;
9848;SDS011;4963;51.444;6.528;2023-04-24T00:47:14;6.10;;;3.10;;
9848;SDS011;4963;51.444;6.528;2023-04-24T00:49:42;4.20;;;3.03;;
9848;SDS011;4963;51.444;6.528;2023-04-24T00:52:09;3.90;;;3.33;;
9848;SDS011;4963;51.444;6.528;2023-04-24T00:54:37;4.67;;;3.60;;
9848;SDS011;4963;51.444;6.528;2023-04-24T00:57:04;9.03;;;3.40;;
9848;SDS011;4963;51.444;6.528;2023-04-24T00:59:31;4.43;;;3.63;;
9848;SDS011;4963;51.444;6.528;2023-04-24T01:01:58;5.07;;;3.30;;
9848;SDS011;4963;51.444;6.528;2023-04-24T01:04:25;5.83;;;3.73;;
9848;SDS011;4963;51.444;6.528;2023-04-24T01:06:53;6.23;;;4.00;;
9848;SDS011;4963;51.444;6.528;2023-04-24T01:09:22;4.90;;;4.17;;
9848;SDS011;4963;51.444;6.528;2023-04-24T01:11:49;4.90;;;3.63;;
9848;SDS011;4963;51.444;6.528;2023-04-24T01:14:17;5.73;;;4.30;;
9848;SDS011;4963;51.444;6.528;2023-04-24T01:16:43;5.97;;;4.90;;
9848;SDS011;4963;51.444;6.528;2023-04-24T01:19:10;6.93;;;4.60;;
9848;SDS011;4963;51.444;6.528;2023-04-24T01:21:37;7.77;;;4.80;;
9848;SDS011;4963;51.444;6.528;2023-04-24T01:24:06;7.20;;;5.00;;
9848;SDS011;4963;51.444;6.528;2023-04-24T01:26:33;6.93;;;5.40;;
9848;SDS011;4963;51.444;6.528;2023-04-24T01:29:00;5.60;;;4.23;;
9848;SDS011;4963;51.444;6.528;2023-04-24T01:31:27;5.53;;;4.73;;
9848;SDS011;4963;51.444;6.528;2023-04-24T01:33:55;6.67;;;5.17;;
9848;SDS011;4963;51.444;6.528;2023-04-24T01:36:22;10.87;;;5.93;;
9848;SDS011;4963;51.444;6.528;2023-04-24T01:38:52;10.17;;;5.90;;
9848;SDS011;4963;51.444;6.528;2023-04-24T01:41:20;7.47;;;5.33;;
9848;SDS011;4963;51.444;6.528;2023-04-24T01:43:47;8.27;;;5.67;;
9848;SDS011;4963;51.444;6.528;2023-04-24T01:46:15;6.83;;;5.30;;
9848;SDS011;4963;51.444;6.528;2023-04-24T01:48:41;7.60;;;5.17;;
9848;SDS011;4963;51.444;6.528;2023-04-24T01:51:08;8.13;;;5.30;;
9848;SDS011;4963;51.444;6.528;2023-04-24T01:53:35;11.07;;;6.73;;
9848;SDS011;4963;51.444;6.528;2023-04-24T01:56:02;7.30;;;5.50;;
9848;SDS011;4963;51.444;6.528;2023-04-24T01:58:31;9.03;;;5.50;;
9848;SDS011;4963;51.444;6.528;2023-04-24T02:00:58;9.03;;;5.73;;
9848;SDS011;4963;51.444;6.528;2023-04-24T02:03:26;7.70;;;6.03;;
9848;SDS011;4963;51.444;6.528;2023-04-24T02:05:52;9.13;;;6.30;;
9848;SDS011;4963;51.444;6.528;2023-04-24T02:08:19;8.67;;;6.53;;
9848;SDS011;4963;51.444;6.528;2023-04-24T02:10:46;10.70;;;6.87;;
9848;SDS011;4963;51.444;6.528;2023-04-24T02:13:13;9.50;;;7.23;;
9848;SDS011;4963;51.444;6.528;2023-04-24T02:15:41;9.87;;;6.77;;
9848;SDS011;4963;51.444;6.528;2023-04-24T02:18:08;10.20;;;6.77;;
9848;SDS011;4963;51.444;6.528;2023-04-24T02:20:36;11.30;;;7.70;;
9848;SDS011;4963;51.444;6.528;2023-04-24T02:23:03;11.57;;;7.43;;
9848;SDS011;4963;51.444;6.528;2023-04-24T02:25:30;13.40;;;7.60;;
9848;SDS011;4963;51.444;6.528;2023-04-24T02:27:56;8.47;;;7.20;;
9848;SDS011;4963;51.444;6.528;2023-04-24T02:30:23;10.57;;;7.53;;
9848;SDS011;4963;51.444;6.528;2023-04-24T02:32:51;9.97;;;8.07;;
9848;SDS011;4963;51.444;6.528;2023-04-24T02:35:18;11.80;;;8.10;;
9848;SDS011;4963;51.444;6.528;2023-04-24T02:37:45;11.03;;;8.33;;
9848;SDS011;4963;51.444;6.528;2023-04-24T02:40:12;13.30;;;9.10;;
9848;SDS011;4963;51.444;6.528;2023-04-24T02:42:39;15.10;;;8.57;;
9848;SDS011;4963;51.444;6.528;2023-04-24T02:45:06;14.97;;;9.63;;
9848;SDS011;4963;51.444;6.528;2023-04-24T02:47:33;16.37;;;9.70;;
9848;SDS011;4963;51.444;6.528;2023-04-24T02:50:02;12.57;;;9.70;;
9848;SDS011;4963;51.444;6.528;2023-04-24T02:52:29;15.07;;;9.53;;
9848;SDS011;4963;51.444;6.528;2023-04-24T02:54:56;13.53;;;8.93;;
9848;SDS011;4963;51.444;6.528;2023-04-24T02:57:23;9.53;;;8.03;;
9848;SDS011;4963;51.444;6.528;2023-04-24T02:59:50;13.80;;;9.90;;
9848;SDS011;4963;51.444;6.528;2023-04-24T03:02:16;13.13;;;9.70;;
9848;SDS011;4963;51.444;6.528;2023-04-24T03:04:43;11.93;;;9.67;;
9848;SDS011;4963;51.444;6.528;2023-04-24T03:07:11;16.10;;;10.10;;
9848;SDS011;4963;51.444;6.528;2023-04-24T03:09:39;15.00;;;10.20;;
9848;SDS011;4963;51.444;6.528;2023-04-24T03:12:06;12.37;;;9.13;;
9848;SDS011;4963;51.444;6.528;2023-04-24T03:14:33;16.90;;;10.23;;
9848;SDS011;4963;51.444;6.528;2023-04-24T03:16:59;12.67;;;9.93;;
9848;SDS011;4963;51.444;6.528;2023-04-24T03:19:26;14.70;;;9.80;;
9848;SDS011;4963;51.444;6.528;2023-04-24T03:21:53;15.73;;;10.37;;
9848;SDS011;4963;51.444;6.528;2023-04-24T03:24:21;16.97;;;10.43;;
9848;SDS011;4963;51.444;6.528;2023-04-24T03:26:48;14.10;;;10.50;;
9848;SDS011;4963;51.444;6.528;2023-04-24T03:29:15;12.97;;;10.20;;
9848;SDS011;4963;51.444;6.528;2023-04-24T03:31:41;14.23;;;10.03;;
9848;SDS011;4963;51.444;6.528;2023-04-24T03:34:08;14.40;;;9.67;;
9848;SDS011;4963;51.444;6.528;2023-04-24T03:36:35;14.13;;;10.43;;
9848;SDS011;4963;51.444;6.528;2023-04-24T03:39:02;15.70;;;9.77;;
9848;SDS011;4963;51.444;6.528;2023-04-24T03:41:30;13.37;;;9.67;;
9848;SDS011;4963;51.444;6.528;2023-04-24T03:43:57;13.20;;;10.40;;
9848;SDS011;4963;51.444;6.528;2023-04-24T03:46:23;15.50;;;9.23;;
9848;SDS011;4963;51.444;6.528;2023-04-24T03:48:50;13.37;;;9.33;;
9848;SDS011;4963;51.444;6.528;2023-04-24T03:51:17;16.83;;;9.33;;
9848;SDS011;4963;51.444;6.528;2023-04-24T03:53:44;12.20;;;9.17;;
9848;SDS011;4963;51.444;6.528;2023-04-24T03:56:10;15.93;;;10.27;;
9848;SDS011;4963;51.444;6.528;2023-04-24T03:58:38;13.00;;;9.17;;
9848;SDS011;4963;51.444;6.528;2023-04-24T04:01:05;14.97;;;9.40;;
9848;SDS011;4963;51.444;6.528;2023-04-24T04:03:33;17.13;;;10.80;;
9848;SDS011;4963;51.444;6.528;2023-04-24T04:06:00;13.33;;;9.40;;
9848;SDS011;4963;51.444;6.528;2023-04-24T04:08:27;14.50;;;9.87;;
9848;SDS011;4963;51.444;6.528;2023-04-24T04:10:55;17.23;;;9.43;;
9848;SDS011;4963;51.444;6.528;2023-04-24T04:13:22;12.20;;;9.23;;
9848;SDS011;4963;51.444;6.528;2023-04-24T04:15:52;14.17;;;9.57;;
9848;SDS011;4963;51.444;6.528;2023-04-24T04:18:19;13.57;;;9.03;;
9848;SDS011;4963;51.444;6.528;2023-04-24T04:20:47;12.70;;;9.50;;
9848;SDS011;4963;51.444;6.528;2023-04-24T04:23:14;10.23;;;8.17;;
9848;SDS011;4963;51.444;6.528;2023-04-24T04:25:42;15.57;;;9.33;;
9848;SDS011;4963;51.444;6.528;2023-04-24T04:28:09;12.40;;;9.20;;
9848;SDS011;4963;51.444;6.528;2023-04-24T04:30:37;12.23;;;8.53;;
9848;SDS011;4963;51.444;6.528;2023-04-24T04:33:06;10.70;;;7.53;;
9848;SDS011;4963;51.444;6.528;2023-04-24T04:35:35;10.33;;;8.33;;
9848;SDS011;4963;51.444;6.528;2023-04-24T04:38:03;9.73;;;8.33;;
9848;SDS011;4963;51.444;6.528;2023-04-24T04:40:33;9.67;;;7.97;;
9848;SDS011;4963;51.444;6.528;2023-04-24T04:43:00;15.80;;;9.23;;
9848;SDS011;4963;51.444;6.528;2023-04-24T04:45:28;11.47;;;8.30;;
9848;SDS011;4963;51.444;6.528;2023-04-24T04:47:57;12.20;;;7.63;;
9848;SDS011;4963;51.444;6.528;2023-04-24T04:50:28;9.00;;;7.27;;
9848;SDS011;4963;51.444;6.528;2023-04-24T04:52:56;13.10;;;7.93;;
9848;SDS011;4963;51.444;6.528;2023-04-24T04:55:24;9.37;;;7.47;;
9848;SDS011;4963;51.444;6.528;2023-04-24T04:57:51;9.60;;;7.07;;
9848;SDS011;4963;51.444;6.528;2023-04-24T05:00:20;8.80;;;6.73;;
9848;SDS011;4963;51.444;6.528;2023-04-24T05:02:50;10.47;;;7.17;;
9848;SDS011;4963;51.444;6.528;2023-04-24T05:05:17;9.37;;;7.13;;
9848;SDS011;4963;51.444;6.528;2023-04-24T05:07:46;8.47;;;6.17;;
9848;SDS011;4963;51.444;6.528;2023-04-24T05:10:14;8.73;;;7.23;;
9848;SDS011;4963;51.444;6.528;2023-04-24T05:12:41;8.83;;;6.10;;
9848;SDS011;4963;51.444;6.528;2023-04-24T05:15:10;11.93;;;6.47;;
9848;SDS011;4963;51.444;6.528;2023-04-24T05:17:37;8.43;;;6.20;;
9848;SDS011;4963;51.444;6.528;2023-04-24T05:20:06;8.00;;;6.37;;
9848;SDS011;4963;51.444;6.528;2023-04-24T05:22:34;8.00;;;6.30;;
9848;SDS011;4963;51.444;6.528;2023-04-24T05:25:04;7.40;;;6.43;;
9848;SDS011;4963;51.444;6.528;2023-04-24T05:27:31;8.50;;;6.83;;
9848;SDS011;4963;51.444;6.528;2023-04-24T05:29:59;8.47;;;6.50;;
9848;SDS011;4963;51.444;6.528;2023-04-24T05:32:27;11.93;;;6.60;;
9848;SDS011;4963;51.444;6.528;2023-04-24T05:34:55;10.60;;;7.13;;
9848;SDS011;4963;51.444;6.528;2023-04-24T05:37:22;8.47;;;6.70;;
9848;SDS011;4963;51.444;6.528;2023-04-24T05:39:50;10.00;;;7.50;;
9848;SDS011;4963;51.444;6.528;2023-04-24T05:42:19;7.93;;;6.93;;
9848;SDS011;4963;51.444;6.528;2023-04-24T05:44:47;8.43;;;6.77;;
9848;SDS011;4963;51.444;6.528;2023-04-24T05:47:14;9.77;;;6.93;;
9848;SDS011;4963;51.444;6.528;2023-04-24T05:49:42;9.47;;;7.60;;
9848;SDS011;4963;51.444;6.528;2023-04-24T05:52:10;8.83;;;7.47;;
9848;SDS011;4963;51.444;6.528;2023-04-24T05:54:37;8.30;;;6.83;;
9848;SDS011;4963;51.444;6.528;2023-04-24T05:57:05;8.00;;;6.83;;
9848;SDS011;4963;51.444;6.528;2023-04-24T05:59:35;9.33;;;7.30;;
9848;SDS011;4963;51.444;6.528;2023-04-24T06:02:02;10.73;;;7.33;;
9848;SDS011;4963;51.444;6.528;2023-04-24T06:04:30;11.37;;;7.33;;
9848;SDS011;4963;51.444;6.528;2023-04-24T06:06:57;8.57;;;6.67;;
9848;SDS011;4963;51.444;6.528;2023-04-24T06:09:25;10.47;;;8.20;;
9848;SDS011;4963;51.444;6.528;2023-04-24T06:11:53;10.20;;;8.00;;
9848;SDS011;4963;51.444;6.528;2023-04-24T06:14:21;89.03;;;16.63;;
9848;SDS011;4963;51.444;6.528;2023-04-24T06:16:50;18.07;;;7.67;;
9848;SDS011;4963;51.444;6.528;2023-04-24T06:19:17;11.57;;;7.80;;
9848;SDS011;4963;51.444;6.528;2023-04-24T06:21:45;13.67;;;7.70;;
9848;SDS011;4963;51.444;6.528;2023-04-24T06:24:13;16.80;;;8.97;;
9848;SDS011;4963;51.444;6.528;2023-04-24T06:26:41;8.17;;;7.13;;
9848;SDS011;4963;51.444;6.528;2023-04-24T06:29:09;9.47;;;6.77;;
9848;SDS011;4963;51.444;6.528;2023-04-24T06:31:37;9.70;;;7.53;;
9848;SDS011;4963;51.444;6.528;2023-04-24T06:34:06;6.80;;;5.70;;
9848;SDS011;4963;51.444;6.528;2023-04-24T06:36:34;6.60;;;5.50;;
9848;SDS011;4963;51.444;6.528;2023-04-24T06:39:01;7.40;;;5.47;;
9848;SDS011;4963;51.444;6.528;2023-04-24T06:41:28;6.90;;;5.37;;
9848;SDS011;4963;51.444;6.528;2023-04-24T06:43:56;6.60;;;5.83;;
9848;SDS011;4963;51.444;6.528;2023-04-24T06:46:23;7.53;;;5.93;;
9848;SDS011;4963;51.444;6.528;2023-04-24T06:48:51;5.57;;;4.80;;
9848;SDS011;4963;51.444;6.528;2023-04-24T06:51:21;6.10;;;5.23;;
9848;SDS011;4963;51.444;6.528;2023-04-24T06:53:49;4.77;;;4.27;;
9848;SDS011;4963;51.444;6.528;2023-04-24T06:56:16;5.50;;;4.30;;
9848;SDS011;4963;51.444;6.528;2023-04-24T06:58:44;5.13;;;4.13;;
9848;SDS011;4963;51.444;6.528;2023-04-24T07:01:11;6.20;;;3.20;;
9848;SDS011;4963;51.444;6.528;2023-04-24T07:03:39;3.53;;;2.73;;
9848;SDS011;4963;51.444;6.528;2023-04-24T07:06:07;3.30;;;2.57;;
9848;SDS011;4963;51.444;6.528;2023-04-24T07:08:35;3.90;;;2.93;;
9848;SDS011;4963;51.444;6.528;2023-04-24T07:11:03;3.10;;;2.27;;
9848;SDS011;4963;51.444;6.528;2023-04-24T07:13:30;3.07;;;2.20;;
9848;SDS011;4963;51.444;6.528;2023-04-24T07:16:00;3.63;;;2.30;;
9848;SDS011;4963;51.444;6.528;2023-04-24T07:18:28;4.20;;;2.27;;
9848;SDS011;4963;51.444;6.528;2023-04-24T07:20:55;5.23;;;1.90;;
9848;SDS011;4963;51.444;6.528;2023-04-24T07:23:23;6.63;;;2.50;;
9848;SDS011;4963;51.444;6.528;2023-04-24T07:25:51;2.43;;;2.10;;
9848;SDS011;4963;51.444;6.528;2023-04-24T07:28:18;3.40;;;2.00;;
9848;SDS011;4963;51.444;6.528;2023-04-24T07:30:46;3.00;;;2.10;;
9848;SDS011;4963;51.444;6.528;2023-04-24T07:33:13;3.10;;;2.27;;
9848;SDS011;4963;51.444;6.528;2023-04-24T07:35:40;2.63;;;1.90;;
9848;SDS011;4963;51.444;6.528;2023-04-24T07:38:07;1.80;;;1.60;;
9848;SDS011;4963;51.444;6.528;2023-04-24T07:40:35;1.90;;;1.47;;
9848;SDS011;4963;51.444;6.528;2023-04-24T07:43:04;2.63;;;1.67;;
9848;SDS011;4963;51.444;6.528;2023-04-24T07:45:31;2.33;;;1.80;;
9848;SDS011;4963;51.444;6.528;2023-04-24T07:48:01;2.83;;;1.63;;
9848;SDS011;4963;51.444;6.528;2023-04-24T07:50:28;2.57;;;1.80;;
9848;SDS011;4963;51.444;6.528;2023-04-24T07:52:55;4.37;;;1.50;;
9848;SDS011;4963;51.444;6.528;2023-04-24T07:55:23;2.77;;;2.10;;
9848;SDS011;4963;51.444;6.528;2023-04-24T07:57:51;14.63;;;8.80;;
9848;SDS011;4963;51.444;6.528;2023-04-24T08:00:20;12.87;;;7.23;;
9848;SDS011;4963;51.444;6.528;2023-04-24T08:02:47;3.73;;;1.80;;
9848;SDS011;4963;51.444;6.528;2023-04-24T08:05:15;2.13;;;1.93;;
9848;SDS011;4963;51.444;6.528;2023-04-24T08:07:42;4.23;;;1.90;;
9848;SDS011;4963;51.444;6.528;2023-04-24T08:10:11;2.23;;;1.90;;
9848;SDS011;4963;51.444;6.528;2023-04-24T08:12:38;2.37;;;1.60;;
9848;SDS011;4963;51.444;6.528;2023-04-24T08:15:06;2.30;;;1.60;;
9848;SDS011;4963;51.444;6.528;2023-04-24T08:17:35;1.50;;;1.40;;
9848;SDS011;4963;51.444;6.528;2023-04-24T08:20:03;2.23;;;1.60;;
9848;SDS011;4963;51.444;6.528;2023-04-24T08:22:30;2.07;;;1.50;;
9848;SDS011;4963;51.444;6.528;2023-04-24T08:24:57;1.70;;;1.30;;
9848;SDS011;4963;51.444;6.528;2023-04-24T08:27:25;1.43;;;1.33;;
9848;SDS011;4963;51.444;6.528;2023-04-24T08:29:52;1.53;;;1.30;;
9848;SDS011;4963;51.444;6.528;2023-04-24T08:32:19;1.47;;;1.30;;
9848;SDS011;4963;51.444;6.528;2023-04-24T08:34:47;1.33;;;1.03;;
9848;SDS011;4963;51.444;6.528;2023-04-24T08:37:14;2.20;;;1.27;;
9848;SDS011;4963;51.444;6.528;2023-04-24T08:39:41;2.73;;;1.40;;
9848;SDS011;4963;51.444;6.528;2023-04-24T08:42:07;2.60;;;1.50;;
9848;SDS011;4963;51.444;6.528;2023-04-24T08:44:35;3.07;;;2.73;;
9848;SDS011;4963;51.444;6.528;2023-04-24T08:47:02;7.33;;;4.27;;
9848;SDS011;4963;51.444;6.528;2023-04-24T08:49:30;5.60;;;5.00;;
9848;SDS011;4963;51.444;6.528;2023-04-24T08:51:58;7.17;;;5.47;;
9848;SDS011;4963;51.444;6.528;2023-04-24T08:54:26;7.23;;;6.10;;
9848;SDS011;4963;51.444;6.528;2023-04-24T08:56:56;6.13;;;5.53;;
9848;SDS011;4963;51.444;6.528;2023-04-24T08:59:26;7.50;;;4.80;;
9848;SDS011;4963;51.444;6.528;2023-04-24T09:01:54;6.93;;;4.97;;
9848;SDS011;4963;51.444;6.528;2023-04-24T09:04:22;6.93;;;5.00;;
9848;SDS011;4963;51.444;6.528;2023-04-24T09:06:50;8.13;;;5.90;;
9848;SDS011;4963;51.444;6.528;2023-04-24T09:09:19;6.73;;;5.87;;
9848;SDS011;4963;51.444;6.528;2023-04-24T09:11:47;7.67;;;5.97;;
9848;SDS011;4963;51.444;6.528;2023-04-24T09:14:16;6.70;;;5.83;;
9848;SDS011;4963;51.444;6.528;2023-04-24T09:16:44;9.70;;;6.27;;
9848;SDS011;4963;51.444;6.528;2023-04-24T09:19:12;7.33;;;5.73;;
9848;SDS011;4963;51.444;6.528;2023-04-24T09:21:39;11.73;;;6.30;;
9848;SDS011;4963;51.444;6.528;2023-04-24T09:24:07;6.73;;;5.13;;
9848;SDS011;4963;51.444;6.528;2023-04-24T09:26:36;8.30;;;5.90;;
9848;SDS011;4963;51.444;6.528;2023-04-24T09:29:03;7.70;;;5.90;;
9848;SDS011;4963;51.444;6.528;2023-04-24T09:31:30;8.70;;;6.50;;
9848;SDS011;4963;51.444;6.528;2023-04-24T09:33:58;7.57;;;6.07;;
9848;SDS011;4963;51.444;6.528;2023-04-24T09:36:28;10.43;;;6.53;;
9848;SDS011;4963;51.444;6.528;2023-04-24T09:38:58;11.07;;;6.33;;
9848;SDS011;4963;51.444;6.528;2023-04-24T09:41:25;9.63;;;5.97;;
9848;SDS011;4963;51.444;6.528;2023-04-24T09:43:54;7.47;;;5.37;;
9848;SDS011;4963;51.444;6.528;2023-04-24T09:46:28;10.10;;;5.97;;
9848;SDS011;4963;51.444;6.528;2023-04-24T09:48:56;9.00;;;5.37;;
9848;SDS011;4963;51.444;6.528;2023-04-24T09:51:33;8.60;;;5.50;;
9848;SDS011;4963;51.444;6.528;2023-04-24T09:54:01;10.60;;;5.17;;
9848;SDS011;4963;51.444;6.528;2023-04-24T09:56:28;8.53;;;4.73;;
9848;SDS011;4963;51.444;6.528;2023-04-24T09:59:05;13.00;;;5.23;;
9848;SDS011;4963;51.444;6.528;2023-04-24T10:01:32;9.83;;;4.63;;
9848;SDS011;4963;51.444;6.528;2023-04-24T10:03:59;8.43;;;4.43;;
9848;SDS011;4963;51.444;6.528;2023-04-24T10:06:29;10.47;;;4.50;;
9848;SDS011;4963;51.444;6.528;2023-04-24T10:08:58;9.73;;;4.40;;
9848;SDS011;4963;51.444;6.528;2023-04-24T10:11:26;7.23;;;4.20;;
9848;SDS011;4963;51.444;6.528;2023-04-24T10:13:53;8.90;;;4.63;;
9848;SDS011;4963;51.444;6.528;2023-04-24T10:16:23;9.57;;;5.53;;
9848;SDS011;4963;51.444;6.528;2023-04-24T10:18:52;8.17;;;4.67;;
9848;SDS011;4963;51.444;6.528;2023-04-24T10:21:19;9.97;;;4.70;;
9848;SDS011;4963;51.444;6.528;2023-04-24T10:23:46;9.90;;;3.97;;
9848;SDS011;4963;51.444;6.528;2023-04-24T10:26:15;6.60;;;4.33;;
9848;SDS011;4963;51.444;6.528;2023-04-24T10:28:44;13.97;;;5.00;;
9848;SDS011;4963;51.444;6.528;2023-04-24T10:31:12;13.80;;;5.13;;
9848;SDS011;4963;51.444;6.528;2023-04-24T10:33:40;9.47;;;4.53;;
9848;SDS011;4963;51.444;6.528;2023-04-24T10:36:08;10.20;;;4.60;;
9848;SDS011;4963;51.444;6.528;2023-04-24T10:38:36;12.33;;;4.83;;
9848;SDS011;4963;51.444;6.528;2023-04-24T10:41:07;14.53;;;5.30;;
9848;SDS011;4963;51.444;6.528;2023-04-24T10:43:35;10.30;;;6.07;;
9848;SDS011;4963;51.444;6.528;2023-04-24T10:46:02;13.80;;;4.90;;
9848;SDS011;4963;51.444;6.528;2023-04-24T10:48:30;10.47;;;4.73;;
9848;SDS011;4963;51.444;6.528;2023-04-24T10:50:59;12.67;;;5.17;;
9848;SDS011;4963;51.444;6.528;2023-04-24T10:53:27;9.50;;;5.27;;
9848;SDS011;4963;51.444;6.528;2023-04-24T10:55:57;10.87;;;5.30;;
9848;SDS011;4963;51.444;6.528;2023-04-24T10:58:35;14.77;;;4.33;;
9848;SDS011;4963;51.444;6.528;2023-04-24T11:01:03;9.17;;;4.87;;
9848;SDS011;4963;51.444;6.528;2023-04-24T11:03:31;9.47;;;4.50;;
9848;SDS011;4963;51.444;6.528;2023-04-24T11:06:01;8.37;;;4.77;;
9848;SDS011;4963;51.444;6.528;2023-04-24T11:08:30;7.30;;;3.60;;
9848;SDS011;4963;51.444;6.528;2023-04-24T11:10:59;6.00;;;3.20;;
9848;SDS011;4963;51.444;6.528;2023-04-24T11:16:26;10.67;;;3.73;;
9848;SDS011;4963;51.444;6.528;2023-04-24T11:18:59;9.03;;;4.10;;
9848;SDS011;4963;51.444;6.528;2023-04-24T11:21:31;8.43;;;3.67;;
9848;SDS011;4963;51.444;6.528;2023-04-24T11:27:05;9.70;;;3.57;;
9848;SDS011;4963;51.444;6.528;2023-04-24T11:29:39;6.10;;;3.50;;
9848;SDS011;4963;51.444;6.528;2023-04-24T11:32:14;9.10;;;4.20;;
9848;SDS011;4963;51.444;6.528;2023-04-24T11:34:45;10.90;;;3.83;;
9848;SDS011;4963;51.444;6.528;2023-04-24T11:37:14;7.73;;;3.53;;
9848;SDS011;4963;51.444;6.528;2023-04-24T11:39:41;7.03;;;3.50;;
9848;SDS011;4963;51.444;6.528;2023-04-24T11:42:08;8.70;;;3.77;;
9848;SDS011;4963;51.444;6.528;2023-04-24T11:44:35;9.13;;;3.93;;
9848;SDS011;4963;51.444;6.528;2023-04-24T11:47:03;9.30;;;4.07;;
9848;SDS011;4963;51.444;6.528;2023-04-24T11:49:30;7.97;;;3.93;;
9848;SDS011;4963;51.444;6.528;2023-04-24T11:51:57;5.63;;;3.53;;
9848;SDS011;4963;51.444;6.528;2023-04-24T11:54:26;6.97;;;3.57;;
9848;SDS011;4963;51.444;6.528;2023-04-24T11:56:54;7.80;;;3.47;;
9848;SDS011;4963;51.444;6.528;2023-04-24T11:59:22;6.67;;;3.47;;
9848;SDS011;4963;51.444;6.528;2023-04-24T12:01:49;5.03;;;3.17;;
9848;SDS011;4963;51.444;6.528;2023-04-24T12:04:16;5.93;;;2.83;;
9848;SDS011;4963;51.444;6.528;2023-04-24T12:06:59;5.67;;;2.93;;
9848;SDS011;4963;51.444;6.528;2023-04-24T12:09:27;8.23;;;3.00;;
9848;SDS011;4963;51.444;6.528;2023-04-24T12:11:54;6.10;;;2.27;;
9848;SDS011;4963;51.444;6.528;2023-04-24T12:14:22;7.10;;;2.60;;
9848;SDS011;4963;51.444;6.528;2023-04-24T12:16:50;5.47;;;2.37;;
9848;SDS011;4963;51.444;6.528;2023-04-24T12:19:20;3.20;;;2.23;;
9848;SDS011;4963;51.444;6.528;2023-04-24T12:21:58;4.83;;;2.30;;
9848;SDS011;4963;51.444;6.528;2023-04-24T12:24:27;4.77;;;2.17;;
9848;SDS011;4963;51.444;6.528;2023-04-24T12:26:55;3.17;;;2.30;;
9848;SDS011;4963;51.444;6.528;2023-04-24T12:29:22;2.53;;;1.83;;
9848;SDS011;4963;51.444;6.528;2023-04-24T12:31:50;4.47;;;1.70;;
9848;SDS011;4963;51.444;6.528;2023-04-24T12:34:17;4.80;;;1.93;;
9848;SDS011;4963;51.444;6.528;2023-04-24T12:36:45;5.27;;;2.10;;
9848;SDS011;4963;51.444;6.528;2023-04-24T12:39:14;4.50;;;2.00;;
9848;SDS011;4963;51.444;6.528;2023-04-24T12:41:53;4.70;;;1.90;;
9848;SDS011;4963;51.444;6.528;2023-04-24T12:44:28;4.47;;;1.80;;
9848;SDS011;4963;51.444;6.528;2023-04-24T12:46:56;2.63;;;1.50;;
9848;SDS011;4963;51.444;6.528;2023-04-24T12:49:22;4.17;;;1.60;;
9848;SDS011;4963;51.444;6.528;2023-04-24T12:51:49;4.23;;;1.63;;
9848;SDS011;4963;51.444;6.528;2023-04-24T12:54:16;3.20;;;1.47;;
9848;SDS011;4963;51.444;6.528;2023-04-24T12:56:42;3.23;;;1.60;;
9848;SDS011;4963;51.444;6.528;2023-04-24T12:59:11;3.50;;;1.97;;
9848;SDS011;4963;51.444;6.528;2023-04-24T13:01:37;4.10;;;1.67;;
9848;SDS011;4963;51.444;6.528;2023-04-24T13:04:05;3.70;;;1.40;;
9848;SDS011;4963;51.444;6.528;2023-04-24T13:06:31;4.17;;;1.67;;
9848;SDS011;4963;51.444;6.528;2023-04-24T13:08:58;3.83;;;1.57;;
9848;SDS011;4963;51.444;6.528;2023-04-24T13:11:25;5.23;;;1.60;;
9848;SDS011;4963;51.444;6.528;2023-04-24T13:13:52;3.27;;;1.87;;
9848;SDS011;4963;51.444;6.528;2023-04-24T13:16:20;4.03;;;1.80;;
9848;SDS011;4963;51.444;6.528;2023-04-24T13:18:48;2.63;;;1.50;;
9848;SDS011;4963;51.444;6.528;2023-04-24T13:21:15;5.87;;;1.60;;
9848;SDS011;4963;51.444;6.528;2023-04-24T13:23:42;5.17;;;1.80;;
9848;SDS011;4963;51.444;6.528;2023-04-24T13:26:08;6.27;;;1.67;;
9848;SDS011;4963;51.444;6.528;2023-04-24T13:28:35;4.80;;;1.90;;
9848;SDS011;4963;51.444;6.528;2023-04-24T13:31:03;3.70;;;1.60;;
9848;SDS011;4963;51.444;6.528;2023-04-24T13:33:32;2.17;;;1.50;;
9848;SDS011;4963;51.444;6.528;2023-04-24T13:35:59;4.50;;;1.60;;
9848;SDS011;4963;51.444;6.528;2023-04-24T13:38:26;4.73;;;1.53;;
9848;SDS011;4963;51.444;6.528;2023-04-24T13:40:52;2.97;;;1.60;;
9848;SDS011;4963;51.444;6.528;2023-04-24T13:43:19;2.30;;;1.40;;
9848;SDS011;4963;51.444;6.528;2023-04-24T13:45:46;3.87;;;1.50;;
9848;SDS011;4963;51.444;6.528;2023-04-24T13:48:13;5.23;;;1.50;;
9848;SDS011;4963;51.444;6.528;2023-04-24T13:50:42;3.50;;;1.50;;
9848;SDS011;4963;51.444;6.528;2023-04-24T13:53:09;4.47;;;1.80;;
9848;SDS011;4963;51.444;6.528;2023-04-24T13:55:36;3.70;;;1.80;;
9848;SDS011;4963;51.444;6.528;2023-04-24T13:58:04;3.80;;;1.57;;
9848;SDS011;4963;51.444;6.528;2023-04-24T14:00:31;4.43;;;1.50;;
9848;SDS011;4963;51.444;6.528;2023-04-24T14:02:58;4.07;;;1.50;;
9848;SDS011;4963;51.444;6.528;2023-04-24T14:05:25;4.60;;;1.50;;
9848;SDS011;4963;51.444;6.528;2023-04-24T14:07:53;4.37;;;1.60;;
9848;SDS011;4963;51.444;6.528;2023-04-24T14:10:20;2.83;;;1.47;;
9848;SDS011;4963;51.444;6.528;2023-04-24T14:12:47;3.40;;;1.20;;
9848;SDS011;4963;51.444;6.528;2023-04-24T14:15:14;3.40;;;1.20;;
9848;SDS011;4963;51.444;6.528;2023-04-24T14:17:41;4.60;;;2.00;;
9848;SDS011;4963;51.444;6.528;2023-04-24T14:20:08;3.57;;;1.77;;
9848;SDS011;4963;51.444;6.528;2023-04-24T14:22:35;4.40;;;1.83;;
9848;SDS011;4963;51.444;6.528;2023-04-24T14:25:04;3.67;;;1.50;;
9848;SDS011;4963;51.444;6.528;2023-04-24T14:27:32;3.50;;;1.63;;
9848;SDS011;4963;51.444;6.528;2023-04-24T14:29:59;3.03;;;1.40;;
9848;SDS011;4963;51.444;6.528;2023-04-24T14:32:26;3.67;;;1.60;;
9848;SDS011;4963;51.444;6.528;2023-04-24T14:34:53;4.60;;;1.70;;
9848;SDS011;4963;51.444;6.528;2023-04-24T14:37:20;4.07;;;1.90;;
9848;SDS011;4963;51.444;6.528;2023-04-24T14:39:46;4.10;;;1.70;;
9848;SDS011;4963;51.444;6.528;2023-04-24T14:42:15;4.33;;;2.30;;
9848;SDS011;4963;51.444;6.528;2023-04-24T14:44:42;2.90;;;1.90;;
9848;SDS011;4963;51.444;6.528;2023-04-24T14:47:09;3.00;;;1.70;;
9848;SDS011;4963;51.444;6.528;2023-04-24T14:49:36;2.87;;;1.50;;
9848;SDS011;4963;51.444;6.528;2023-04-24T14:52:03;2.30;;;1.53;;
9848;SDS011;4963;51.444;6.528;2023-04-24T14:54:29;3.77;;;1.70;;
9848;SDS011;4963;51.444;6.528;2023-04-24T14:56:56;4.67;;;1.90;;
9848;SDS011;4963;51.444;6.528;2023-04-24T14:59:25;3.83;;;1.50;;
9848;SDS011;4963;51.444;6.528;2023-04-24T15:01:51;4.27;;;1.50;;
9848;SDS011;4963;51.444;6.528;2023-04-24T15:04:22;3.13;;;1.90;;
9848;SDS011;4963;51.444;6.528;2023-04-24T15:06:50;4.60;;;1.20;;
9848;SDS011;4963;51.444;6.528;2023-04-24T15:09:18;3.03;;;1.50;;
9848;SDS011;4963;51.444;6.528;2023-04-24T15:11:45;3.07;;;1.60;;
9848;SDS011;4963;51.444;6.528;2023-04-24T15:14:12;2.63;;;1.63;;
9848;SDS011;4963;51.444;6.528;2023-04-24T15:16:41;5.83;;;1.90;;
9848;SDS011;4963;51.444;6.528;2023-04-24T15:19:08;4.80;;;1.90;;